Time;durP1;ratioP1;P1;durP2;ratioP2;P2;SDS_P1;SDS_P2;PMS_P1;PMS_P2;Temp;Humidity;BMP_temperature;BMP_pressure;BME280_temperature;BME280_humidity;BME280_pressure;Samples;Min_cycle;Max_cycle;Signal;HPM_P1;HPM_P2
2022/04/18 00:01:31;;;;;;;11.25;5.50;;;;;;;;;;5050925;28;20939;-38
2022/04/18 00:03:57;;;;;;;7.45;3.40;;;;;;;;;;5051356;28;20033;-41
2022/04/18 00:06:25;;;;;;;52.35;25.20;;;;;;;;;;5051871;28;20045;-39
2022/04/18 00:08:52;;;;;;;23.65;11.88;;;;;;;;;;5052095;28;20028;-37
2022/04/18 00:11:18;;;;;;;13.98;7.40;;;;;;;;;;5052185;28;20079;-39
2022/04/18 00:13:46;;;;;;;12.77;6.93;;;;;;;;;;5051898;28;20029;-37
2022/04/18 00:16:12;;;;;;;15.40;8.20;;;;;;;;;;5050602;28;20070;-42
2022/04/18 00:18:38;;;;;;;59.25;26.45;;;;;;;;;;5049737;28;20032;-37
2022/04/18 00:21:04;;;;;;;27.40;13.05;;;;;;;;;;5052142;28;20033;-41
2022/04/18 00:23:30;;;;;;;29.95;14.88;;;;;;;;;;5050739;28;20063;-39
2022/04/18 00:26:01;;;;;;;34.80;16.88;;;;;;;;;;5051953;28;20090;-41
2022/04/18 00:28:27;;;;;;;18.63;8.27;;;;;;;;;;5051863;28;20403;-42
2022/04/18 00:30:56;;;;;;;13.38;6.13;;;;;;;;;;5050677;28;20312;-36
2022/04/18 00:33:22;;;;;;;9.63;5.32;;;;;;;;;;5051598;28;20514;-41
2022/04/18 00:35:48;;;;;;;13.23;6.68;;;;;;;;;;5051778;28;20036;-41
2022/04/18 00:38:14;;;;;;;12.27;6.45;;;;;;;;;;5050770;28;20067;-39
2022/04/18 00:40:40;;;;;;;52.53;26.08;;;;;;;;;;5050997;28;20029;-38
2022/04/18 00:43:07;;;;;;;38.15;16.83;;;;;;;;;;5051406;28;20071;-40
2022/04/18 00:45:33;;;;;;;33.30;17.00;;;;;;;;;;5051552;28;20029;-37
2022/04/18 00:47:59;;;;;;;22.05;11.32;;;;;;;;;;5051605;28;20045;-49
2022/04/18 00:50:26;;;;;;;25.85;12.40;;;;;;;;;;5051318;28;20060;-41
2022/04/18 00:52:54;;;;;;;22.58;10.70;;;;;;;;;;5051305;28;20021;-38
2022/04/18 00:55:20;;;;;;;17.25;7.75;;;;;;;;;;5054229;28;20421;-38
2022/04/18 00:57:48;;;;;;;11.65;6.82;;;;;;;;;;5054521;28;20017;-39
2022/04/18 01:00:14;;;;;;;26.58;12.77;;;;;;;;;;5054401;28;20047;-37
2022/04/18 01:02:43;;;;;;;22.20;9.95;;;;;;;;;;5053062;28;20078;-39
2022/04/18 01:05:09;;;;;;;23.17;11.15;;;;;;;;;;5054341;28;20503;-39
2022/04/18 01:07:38;;;;;;;13.32;6.05;;;;;;;;;;5061973;28;20013;-41
2022/04/18 01:10:05;;;;;;;12.93;6.68;;;;;;;;;;5073991;28;20377;-39
2022/04/18 01:12:31;;;;;;;16.23;7.35;;;;;;;;;;5074115;28;20021;-39
2022/04/18 01:14:58;;;;;;;9.75;5.40;;;;;;;;;;5072887;28;20086;-43
2022/04/18 01:17:24;;;;;;;16.67;8.70;;;;;;;;;;5054011;28;20043;-39
2022/04/18 01:19:50;;;;;;;17.90;7.30;;;;;;;;;;5054126;28;20029;-40
2022/04/18 01:22:20;;;;;;;15.95;8.23;;;;;;;;;;5053862;28;20021;-39
2022/04/18 01:30:16;;;;;;;13.10;7.07;;;;;;;;;;5053983;28;20498;-38
2022/04/18 01:32:45;;;;;;;15.02;6.20;;;;;;;;;;5053773;28;20056;-43
2022/04/18 01:35:11;;;;;;;9.10;4.68;;;;;;;;;;5053741;28;20036;-42
2022/04/18 01:37:37;;;;;;;7.95;4.40;;;;;;;;;;5062603;28;20013;-39
2022/04/18 01:40:07;;;;;;;8.73;3.95;;;;;;;;;;5073638;28;20033;-39
2022/04/18 01:42:33;;;;;;;10.40;4.95;;;;;;;;;;5073488;28;20025;-39
2022/04/18 01:45:02;;;;;;;16.77;9.32;;;;;;;;;;5073486;28;20383;-38
2022/04/18 01:47:28;;;;;;;29.95;16.98;;;;;;;;;;5073378;28;20017;-39
2022/04/18 01:49:54;;;;;;;34.08;16.30;;;;;;;;;;5072190;28;20080;-38
2022/04/18 01:52:20;;;;;;;8.25;4.50;;;;;;;;;;5073514;28;20016;-38
2022/04/18 01:54:46;;;;;;;7.18;3.25;;;;;;;;;;5073411;28;20076;-39
2022/04/18 01:57:12;;;;;;;15.13;6.53;;;;;;;;;;5073246;28;20020;-39
2022/04/18 01:59:44;;;;;;;10.45;5.55;;;;;;;;;;5073217;28;20495;-39
2022/04/18 02:02:10;;;;;;;12.88;5.88;;;;;;;;;;5073353;28;20099;-37
2022/04/18 02:04:36;;;;;;;13.38;6.88;;;;;;;;;;5073307;28;20027;-40
2022/04/18 02:07:02;;;;;;;9.32;5.10;;;;;;;;;;5073411;28;20024;-39
2022/04/18 02:09:29;;;;;;;8.63;4.50;;;;;;;;;;5073298;28;20024;-37
2022/04/18 02:11:55;;;;;;;6.65;2.95;;;;;;;;;;5073104;28;20017;-37
2022/04/18 02:14:21;;;;;;;8.55;4.15;;;;;;;;;;5073093;28;20025;-37
2022/04/18 02:16:47;;;;;;;7.75;3.90;;;;;;;;;;5073162;28;20533;-37
2022/04/18 02:19:13;;;;;;;6.68;3.75;;;;;;;;;;5073413;28;20028;-40
2022/04/18 02:21:39;;;;;;;8.65;4.32;;;;;;;;;;5073224;28;20024;-38
2022/04/18 02:24:05;;;;;;;5.82;3.17;;;;;;;;;;5073240;28;20024;-38
2022/04/18 02:26:31;;;;;;;7.63;4.32;;;;;;;;;;5076048;28;20040;-40
2022/04/18 02:28:57;;;;;;;10.13;4.90;;;;;;;;;;5077420;28;20394;-37
2022/04/18 02:31:26;;;;;;;10.10;4.00;;;;;;;;;;5077193;28;20369;-37
2022/04/18 02:33:54;;;;;;;5.53;2.55;;;;;;;;;;5077162;28;20028;-38
2022/04/18 02:36:20;;;;;;;5.95;3.50;;;;;;;;;;5077070;28;20020;-39
2022/04/18 02:38:46;;;;;;;5.30;3.08;;;;;;;;;;5077245;28;20020;-38
2022/04/18 02:41:12;;;;;;;6.40;3.80;;;;;;;;;;5076883;28;20518;-40
2022/04/18 02:43:41;;;;;;;6.85;3.75;;;;;;;;;;5077052;28;20107;-39
2022/04/18 02:46:07;;;;;;;5.32;2.90;;;;;;;;;;5076891;28;20032;-39
2022/04/18 02:48:33;;;;;;;5.15;3.17;;;;;;;;;;5076711;28;20542;-40
2022/04/18 02:50:59;;;;;;;5.57;3.13;;;;;;;;;;5076943;28;20040;-39
2022/04/18 02:53:25;;;;;;;6.15;3.50;;;;;;;;;;5076720;28;20457;-39
2022/04/18 02:55:53;;;;;;;4.95;2.65;;;;;;;;;;5075405;28;20490;-39
2022/04/18 02:58:19;;;;;;;6.32;2.88;;;;;;;;;;5076572;28;20021;-38
2022/04/18 03:00:46;;;;;;;6.70;3.85;;;;;;;;;;5076678;28;20024;-38
2022/04/18 03:03:12;;;;;;;6.40;3.33;;;;;;;;;;5076843;28;20048;-39
2022/04/18 03:05:38;;;;;;;6.05;3.58;;;;;;;;;;5076496;28;20031;-38
2022/04/18 03:08:04;;;;;;;4.97;2.97;;;;;;;;;;5076603;28;20031;-40
2022/04/18 03:13:15;;;;;;;4.75;2.85;;;;;;;;;;5076277;28;20086;-40
2022/04/18 03:15:41;;;;;;;8.50;2.97;;;;;;;;;;5076166;28;20059;-38
2022/04/18 03:18:07;;;;;;;3.75;2.35;;;;;;;;;;5076529;28;20028;-39
2022/04/18 03:20:35;;;;;;;6.43;3.22;;;;;;;;;;5076325;28;20020;-38
2022/04/18 03:23:01;;;;;;;6.20;3.17;;;;;;;;;;5076465;28;20149;-39
2022/04/18 03:25:27;;;;;;;4.32;2.40;;;;;;;;;;5076080;28;20115;-39
2022/04/18 03:27:53;;;;;;;6.93;2.72;;;;;;;;;;5075989;28;20016;-38
2022/04/18 03:30:19;;;;;;;6.28;2.97;;;;;;;;;;5076096;28;20070;-37
2022/04/18 03:32:45;;;;;;;5.57;2.78;;;;;;;;;;5076044;28;20353;-38
2022/04/18 03:35:11;;;;;;;3.63;2.63;;;;;;;;;;5076032;28;20116;-40
2022/04/18 03:40:25;;;;;;;5.53;2.30;;;;;;;;;;5076205;28;20036;-38
2022/04/18 03:42:51;;;;;;;3.30;2.40;;;;;;;;;;5075713;28;20534;-38
2022/04/18 03:45:19;;;;;;;5.05;2.80;;;;;;;;;;5076066;28;20047;-38
2022/04/18 03:47:45;;;;;;;5.45;3.03;;;;;;;;;;5076018;28;20066;-39
2022/04/18 03:50:12;;;;;;;5.63;2.58;;;;;;;;;;5074462;28;20043;-39
2022/04/18 03:52:38;;;;;;;8.48;2.63;;;;;;;;;;5075659;28;20039;-40
2022/04/18 03:55:04;;;;;;;7.13;2.80;;;;;;;;;;5075729;28;20033;-39
2022/04/18 03:57:30;;;;;;;5.45;2.67;;;;;;;;;;5075528;28;20021;-40
2022/04/18 03:59:59;;;;;;;5.43;3.05;;;;;;;;;;5075492;28;20032;-38
2022/04/18 04:02:30;;;;;;;4.32;2.53;;;;;;;;;;5075478;28;20020;-40
2022/04/18 04:04:56;;;;;;;;;;;;;;;;;;5076177;28;20021;-37
2022/04/18 04:07:22;;;;;;;4.20;2.20;;;;;;;;;;5075508;28;20381;-40
2022/04/18 04:09:53;;;;;;;4.18;2.03;;;;;;;;;;5074423;28;20064;-39
2022/04/18 04:12:23;;;;;;;5.63;2.30;;;;;;;;;;5075154;28;20099;-39
2022/04/18 04:14:52;;;;;;;3.17;2.22;;;;;;;;;;5075193;28;20112;-40
2022/04/18 04:17:23;;;;;;;4.07;2.53;;;;;;;;;;5075231;28;20035;-38
2022/04/18 04:19:49;;;;;;;6.32;2.78;;;;;;;;;;5075351;28;20097;-38
2022/04/18 04:22:15;;;;;;;2.58;1.98;;;;;;;;;;5075296;28;20050;-41
2022/04/18 04:24:41;;;;;;;5.45;2.58;;;;;;;;;;5075045;28;20120;-38
2022/04/18 04:27:07;;;;;;;5.05;2.60;;;;;;;;;;5074834;28;20020;-39
2022/04/18 04:29:36;;;;;;;5.55;2.67;;;;;;;;;;5074896;28;20111;-39
2022/04/18 04:32:02;;;;;;;4.40;2.78;;;;;;;;;;5073908;28;20160;-42
2022/04/18 04:34:28;;;;;;;3.95;3.08;;;;;;;;;;5074803;28;20032;-38
2022/04/18 04:36:54;;;;;;;7.70;4.72;;;;;;;;;;5074677;28;20532;-45
2022/04/18 04:39:20;;;;;;;7.97;3.83;;;;;;;;;;5074665;28;20038;-40
2022/04/18 04:41:49;;;;;;;5.60;3.55;;;;;;;;;;5074525;28;20028;-39
2022/04/18 04:44:17;;;;;;;4.90;3.20;;;;;;;;;;5074612;28;20057;-42
2022/04/18 04:46:45;;;;;;;8.50;3.10;;;;;;;;;;5074774;28;20017;-40
2022/04/18 04:49:12;;;;;;;2.67;2.40;;;;;;;;;;5074124;28;20052;-39
2022/04/18 04:51:42;;;;;;;4.82;3.00;;;;;;;;;;5074602;28;20411;-39
2022/04/18 04:54:08;;;;;;;5.95;2.85;;;;;;;;;;5074272;28;20025;-40
2022/04/18 04:56:34;;;;;;;3.75;2.67;;;;;;;;;;5074209;28;20035;-40
2022/04/18 04:59:03;;;;;;;6.05;3.33;;;;;;;;;;5074180;28;20392;-39
2022/04/18 05:01:29;;;;;;;14.45;4.78;;;;;;;;;;5074184;28;20028;-38
2022/04/18 05:03:55;;;;;;;13.57;4.07;;;;;;;;;;5074507;28;20017;-38
2022/04/18 05:06:21;;;;;;;5.22;3.13;;;;;;;;;;5061750;28;20096;-36
2022/04/18 05:08:47;;;;;;;7.20;4.68;;;;;;;;;;5053624;28;20078;-42
2022/04/18 05:11:13;;;;;;;16.50;7.20;;;;;;;;;;5053475;28;20033;-40
2022/04/18 05:13:40;;;;;;;12.13;6.60;;;;;;;;;;5053626;28;20464;-39
2022/04/18 05:16:06;;;;;;;17.63;9.55;;;;;;;;;;5053726;28;20041;-38
2022/04/18 05:18:32;;;;;;;27.52;11.70;;;;;;;;;;5053635;28;20017;-39
2022/04/18 05:20:58;;;;;;;13.65;6.50;;;;;;;;;;5050765;28;20028;-40
2022/04/18 05:23:24;;;;;;;20.30;7.55;;;;;;;;;;5053466;28;20093;-39
2022/04/18 05:25:50;;;;;;;6.93;4.20;;;;;;;;;;5053398;28;20074;-39
2022/04/18 05:28:16;;;;;;;9.85;4.93;;;;;;;;;;5053179;28;20373;-41
2022/04/18 05:30:43;;;;;;;6.55;4.13;;;;;;;;;;5053441;28;20078;-55
2022/04/18 05:33:09;;;;;;;7.38;3.65;;;;;;;;;;5053449;28;20542;-39
2022/04/18 05:35:35;;;;;;;9.40;3.10;;;;;;;;;;5053449;28;20055;-46
2022/04/18 05:38:01;;;;;;;19.35;4.78;;;;;;;;;;5053368;28;20477;-43
2022/04/18 05:40:29;;;;;;;7.57;4.10;;;;;;;;;;5053246;28;20033;-49
2022/04/18 05:42:55;;;;;;;10.95;5.57;;;;;;;;;;5053108;28;20021;-44
2022/04/18 05:45:21;;;;;;;8.70;4.55;;;;;;;;;;5053257;28;20047;-41
2022/04/18 05:47:47;;;;;;;9.65;4.88;;;;;;;;;;5053224;28;20025;-41
2022/04/18 05:50:14;;;;;;;7.68;3.72;;;;;;;;;;5053094;28;20037;-44
2022/04/18 05:52:40;;;;;;;10.70;3.53;;;;;;;;;;5052989;28;20100;-46
2022/04/18 05:55:06;;;;;;;12.15;3.58;;;;;;;;;;5052982;28;20105;-39
2022/04/18 05:57:32;;;;;;;6.80;3.45;;;;;;;;;;5052794;28;20021;-47
2022/04/18 06:00:00;;;;;;;11.63;10.52;;;;;;;;;;5052173;28;20392;-48
2022/04/18 06:02:27;;;;;;;5.60;3.55;;;;;;;;;;5053010;28;20491;-43
2022/04/18 06:04:53;;;;;;;4.03;3.00;;;;;;;;;;5052918;28;20075;-40
2022/04/18 06:07:31;;;;;;;7.10;3.22;;;;;;;;;;5052898;28;20109;-40
2022/04/18 06:09:59;;;;;;;7.38;3.55;;;;;;;;;;5052539;28;20024;-42
2022/04/18 06:12:26;;;;;;;7.85;3.75;;;;;;;;;;5052770;28;20013;-40
2022/04/18 06:14:53;;;;;;;5.35;3.28;;;;;;;;;;5052558;28;20028;-40
2022/04/18 06:17:19;;;;;;;5.65;3.20;;;;;;;;;;5049978;28;20112;-40
2022/04/18 06:19:45;;;;;;;11.32;6.13;;;;;;;;;;5052705;28;20465;-42
2022/04/18 06:22:11;;;;;;;6.45;3.75;;;;;;;;;;5052659;28;20104;-37
2022/04/18 06:24:37;;;;;;;3.70;2.28;;;;;;;;;;5052482;28;20018;-38
2022/04/18 06:27:04;;;;;;;4.72;2.25;;;;;;;;;;5052625;28;20029;-40
2022/04/18 06:29:30;;;;;;;6.07;2.30;;;;;;;;;;5052371;28;20029;-40
2022/04/18 06:31:56;;;;;;;4.90;2.10;;;;;;;;;;5052488;28;20048;-38
2022/04/18 06:34:25;;;;;;;3.42;2.20;;;;;;;;;;5052606;28;20461;-38
2022/04/18 06:36:51;;;;;;;2.58;2.05;;;;;;;;;;5052478;28;20040;-39
2022/04/18 06:39:17;;;;;;;5.38;3.13;;;;;;;;;;5052329;28;20017;-40
2022/04/18 06:41:43;;;;;;;10.68;2.90;;;;;;;;;;5052696;28;20029;-41
2022/04/18 06:44:09;;;;;;;8.45;2.65;;;;;;;;;;5052419;28;20029;-40
2022/04/18 06:46:35;;;;;;;11.27;2.28;;;;;;;;;;5052305;28;20025;-43
2022/04/18 06:49:01;;;;;;;4.32;2.88;;;;;;;;;;5052162;28;20140;-40
2022/04/18 06:51:27;;;;;;;4.25;2.75;;;;;;;;;;5052286;28;20381;-42
2022/04/18 06:53:54;;;;;;;6.53;4.10;;;;;;;;;;5052383;28;20075;-39
2022/04/18 06:59:04;;;;;;;9.88;5.32;;;;;;;;;;5050110;28;20118;-40
2022/04/18 07:01:30;;;;;;;7.80;4.00;;;;;;;;;;5052426;28;20108;-40
2022/04/18 07:03:57;;;;;;;4.70;2.50;;;;;;;;;;5051190;28;20029;-41
2022/04/18 07:06:23;;;;;;;3.10;2.05;;;;;;;;;;5052372;28;20027;-40
2022/04/18 07:08:50;;;;;;;3.17;2.30;;;;;;;;;;5052228;28;20013;-43
2022/04/18 07:11:16;;;;;;;3.97;1.60;;;;;;;;;;5053247;28;20252;-39
2022/04/18 07:13:42;;;;;;;3.63;1.98;;;;;;;;;;5056185;28;20048;-40
2022/04/18 07:16:11;;;;;;;3.28;1.75;;;;;;;;;;5055909;28;20044;-38
2022/04/18 07:18:37;;;;;;;4.35;2.20;;;;;;;;;;5055827;28;20021;-38
2022/04/18 07:21:03;;;;;;;6.30;2.00;;;;;;;;;;5055954;28;20369;-43
2022/04/18 07:23:29;;;;;;;4.63;2.70;;;;;;;;;;5055701;28;20019;-43
2022/04/18 07:25:56;;;;;;;7.28;3.10;;;;;;;;;;5055911;28;20017;-42
2022/04/18 07:28:22;;;;;;;4.15;1.67;;;;;;;;;;5055570;28;20032;-45
2022/04/18 07:30:48;;;;;;;1.95;1.45;;;;;;;;;;5055779;28;20021;-41
2022/04/18 07:33:15;;;;;;;6.63;2.65;;;;;;;;;;5055762;28;21441;-41
2022/04/18 07:35:41;;;;;;;6.40;2.67;;;;;;;;;;5052958;28;20056;-41
2022/04/18 07:40:53;;;;;;;4.53;2.00;;;;;;;;;;5054627;28;20047;-41
2022/04/18 07:43:21;;;;;;;2.30;1.23;;;;;;;;;;5054363;28;20021;-40
2022/04/18 07:45:48;;;;;;;3.03;1.10;;;;;;;;;;5054972;28;20033;-39
2022/04/18 07:48:14;;;;;;;29.52;17.63;;;;;;;;;;5054799;28;20041;-40
2022/04/18 07:53:25;;;;;;;26.27;13.38;;;;;;;;;;5054076;28;20040;-45
2022/04/18 07:55:51;;;;;;;40.13;20.60;;;;;;;;;;5054772;28;20072;-51
2022/04/18 07:58:17;;;;;;;15.80;7.25;;;;;;;;;;5054991;28;20464;-45
2022/04/18 08:00:43;;;;;;;29.13;14.95;;;;;;;;;;5055298;28;20052;-52
2022/04/18 08:03:09;;;;;;;21.02;11.52;;;;;;;;;;5055061;28;20012;-43
2022/04/18 08:05:36;;;;;;;19.33;11.40;;;;;;;;;;5055014;28;20028;-42
2022/04/18 08:08:02;;;;;;;7.10;2.95;;;;;;;;;;5055110;28;20028;-54
2022/04/18 08:10:29;;;;;;;12.25;7.18;;;;;;;;;;5055014;28;20100;-45
2022/04/18 08:12:55;;;;;;;41.35;18.77;;;;;;;;;;5054906;28;20063;-45
2022/04/18 08:15:21;;;;;;;51.42;24.88;;;;;;;;;;5054760;28;20131;-51
2022/04/18 08:17:47;;;;;;;19.58;11.07;;;;;;;;;;5054977;28;20032;-45
2022/04/18 08:20:13;;;;;;;41.90;20.75;;;;;;;;;;5054860;28;20029;-40
2022/04/18 08:22:41;;;;;;;11.48;7.38;;;;;;;;;;5054021;28;20013;-42
2022/04/18 08:25:07;;;;;;;22.85;11.10;;;;;;;;;;5054843;28;20056;-44
2022/04/18 08:27:33;;;;;;;7.18;4.07;;;;;;;;;;5054635;28;20013;-43
2022/04/18 08:30:00;;;;;;;29.05;14.02;;;;;;;;;;5054426;28;20056;-43
2022/04/18 08:32:26;;;;;;;26.63;13.40;;;;;;;;;;5054514;28;20017;-41
2022/04/18 08:34:54;;;;;;;51.65;27.67;;;;;;;;;;5054270;28;20051;-44
2022/04/18 08:37:20;;;;;;;16.48;9.45;;;;;;;;;;5054800;28;20029;-45
2022/04/18 08:39:46;;;;;;;15.68;7.53;;;;;;;;;;5054052;28;20021;-44
2022/04/18 08:42:16;;;;;;;10.57;5.22;;;;;;;;;;5054400;28;20476;-43
2022/04/18 08:44:43;;;;;;;22.55;11.57;;;;;;;;;;5054410;28;20033;-40
2022/04/18 08:52:43;;;;;;;39.50;24.02;;;;;;;;;;5054372;28;20028;-45
2022/04/18 08:52:45;;;;;;;3.40;2.58;;;;;;;;;;5029826;28;20037;-41
2022/04/18 08:55:12;;;;;;;8.45;5.22;;;;;;;;;;5031863;28;20132;-45
2022/04/18 08:57:38;;;;;;;17.55;9.95;;;;;;;;;;5031993;28;20065;-44
2022/04/18 09:00:05;;;;;;;6.63;4.18;;;;;;;;;;5031822;28;20037;-42
2022/04/18 09:02:31;;;;;;;4.32;2.35;;;;;;;;;;5031569;28;20065;-41
2022/04/18 09:04:57;;;;;;;8.55;4.65;;;;;;;;;;5031964;28;20029;-42
2022/04/18 09:07:23;;;;;;;23.08;14.23;;;;;;;;;;5031742;28;20459;-41
2022/04/18 09:09:54;;;;;;;28.98;15.93;;;;;;;;;;5031812;28;20033;-40
2022/04/18 09:12:24;;;;;;;35.28;20.80;;;;;;;;;;5031649;28;20037;-41
2022/04/18 09:14:50;;;;;;;23.10;13.43;;;;;;;;;;5031581;28;20033;-42
2022/04/18 09:17:32;;;;;;;16.30;9.05;;;;;;;;;;5031617;28;20124;-40
2022/04/18 09:20:04;;;;;;;11.57;5.90;;;;;;;;;;5030995;28;20124;-45
2022/04/18 09:22:30;;;;;;;12.38;6.80;;;;;;;;;;5029772;28;20495;-41
2022/04/18 09:24:56;;;;;;;41.05;24.50;;;;;;;;;;5030479;28;20100;-41
2022/04/18 09:27:27;;;;;;;43.33;23.80;;;;;;;;;;5031563;28;20033;-40
2022/04/18 09:30:09;;;;;;;54.38;26.13;;;;;;;;;;5043400;28;20049;-42
2022/04/18 09:32:40;;;;;;;70.43;30.85;;;;;;;;;;5053970;28;20029;-47
2022/04/18 09:35:07;;;;;;;65.53;33.42;;;;;;;;;;5053891;28;20041;-43
2022/04/18 09:37:34;;;;;;;97.65;42.25;;;;;;;;;;5053796;28;20017;-40
2022/04/18 09:40:00;;;;;;;64.28;27.08;;;;;;;;;;5053672;28;20020;-41
2022/04/18 09:42:27;;;;;;;126.05;50.50;;;;;;;;;;5053696;28;20024;-43
2022/04/18 09:44:53;;;;;;;82.93;30.75;;;;;;;;;;5053566;28;20017;-42
2022/04/18 09:47:20;;;;;;;72.75;27.80;;;;;;;;;;5053996;28;20040;-40
2022/04/18 09:49:49;;;;;;;119.93;46.28;;;;;;;;;;5053471;28;20045;-41
2022/04/18 09:52:16;;;;;;;37.28;14.90;;;;;;;;;;5052906;28;20028;-39
2022/04/18 09:54:53;;;;;;;54.33;24.88;;;;;;;;;;5052346;28;20155;-39
2022/04/18 09:57:28;;;;;;;25.25;11.82;;;;;;;;;;5052992;28;20134;-44
2022/04/18 09:59:58;;;;;;;12.98;4.60;;;;;;;;;;5052839;28;20028;-42
2022/04/18 10:02:24;;;;;;;56.30;19.83;;;;;;;;;;5050787;28;20507;-46
2022/04/18 10:04:52;;;;;;;60.25;19.20;;;;;;;;;;5053080;28;20071;-45
2022/04/18 10:07:19;;;;;;;32.15;13.55;;;;;;;;;;5052799;28;20468;-40
2022/04/18 10:09:45;;;;;;;22.58;9.07;;;;;;;;;;5053066;28;20029;-41
2022/04/18 10:12:12;;;;;;;20.08;8.00;;;;;;;;;;5052871;28;20021;-39
2022/04/18 10:14:39;;;;;;;31.33;14.05;;;;;;;;;;5052570;28;20024;-42
2022/04/18 10:17:09;;;;;;;27.92;12.45;;;;;;;;;;5052667;28;20033;-41
2022/04/18 10:19:41;;;;;;;249.63;105.90;;;;;;;;;;5052569;28;20025;-39
2022/04/18 10:22:13;;;;;;;31.40;15.65;;;;;;;;;;5052733;28;20017;-40
2022/04/18 10:24:59;;;;;;;28.40;13.18;;;;;;;;;;5052254;28;20075;-49
2022/04/18 10:27:35;;;;;;;33.35;13.38;;;;;;;;;;5048520;28;20041;-43
2022/04/18 10:30:03;;;;;;;8.90;4.70;;;;;;;;;;5052666;28;20499;-39
2022/04/18 10:32:30;;;;;;;46.05;20.25;;;;;;;;;;5052922;28;20029;-39
2022/04/18 10:34:57;;;;;;;37.15;17.63;;;;;;;;;;5053117;28;20021;-39
2022/04/18 10:37:24;;;;;;;46.88;21.88;;;;;;;;;;5052324;28;20067;-37
2022/04/18 10:40:07;;;;;;;50.67;23.83;;;;;;;;;;5053232;28;20060;-39
2022/04/18 10:42:34;;;;;;;24.50;11.65;;;;;;;;;;5052955;28;20025;-39
2022/04/18 10:45:27;;;;;;;29.67;11.07;;;;;;;;;;5052837;28;20031;-39
2022/04/18 10:47:56;;;;;;;28.20;12.93;;;;;;;;;;5055409;28;20033;-43
2022/04/18 10:50:22;;;;;;;46.42;21.63;;;;;;;;;;5056930;28;20095;-39
2022/04/18 10:53:08;;;;;;;26.85;12.55;;;;;;;;;;5056949;28;20025;-41
2022/04/18 10:55:35;;;;;;;22.05;9.43;;;;;;;;;;5055285;28;20124;-44
2022/04/18 10:58:11;;;;;;;61.03;30.15;;;;;;;;;;5056441;28;20025;-44
2022/04/18 11:01:00;;;;;;;35.70;16.10;;;;;;;;;;5056771;28;20049;-43
2022/04/18 11:03:36;;;;;;;39.92;17.80;;;;;;;;;;5056360;28;20436;-40
2022/04/18 11:06:17;;;;;;;45.55;20.92;;;;;;;;;;5056552;28;20033;-41
2022/04/18 11:08:59;;;;;;;34.92;16.80;;;;;;;;;;5056423;28;20100;-38
2022/04/18 11:11:33;;;;;;;17.58;8.88;;;;;;;;;;5056582;28;20025;-39
2022/04/18 11:14:00;;;;;;;28.90;12.30;;;;;;;;;;5055271;28;20477;-38
2022/04/18 11:16:26;;;;;;;48.85;22.30;;;;;;;;;;5056187;28;20052;-39
2022/04/18 11:19:07;;;;;;;46.17;22.63;;;;;;;;;;5055623;28;20100;-39
2022/04/18 11:21:52;;;;;;;85.13;32.72;;;;;;;;;;5056202;28;20029;-39
2022/04/18 11:24:35;;;;;;;45.15;19.42;;;;;;;;;;5056127;28;20044;-40
2022/04/18 11:27:03;;;;;;;68.95;31.17;;;;;;;;;;5055946;28;20021;-39
2022/04/18 11:29:32;;;;;;;115.28;52.55;;;;;;;;;;5056006;28;20055;-44
2022/04/18 11:31:58;;;;;;;75.25;37.50;;;;;;;;;;5055730;28;20025;-42
2022/04/18 11:34:31;;;;;;;81.78;40.15;;;;;;;;;;5056203;28;20021;-44
2022/04/18 11:36:58;;;;;;;101.22;48.63;;;;;;;;;;5055893;28;20108;-43
2022/04/18 11:39:25;;;;;;;107.70;52.40;;;;;;;;;;5056070;28;20025;-44
2022/04/18 11:42:06;;;;;;;76.93;37.85;;;;;;;;;;5056035;28;20035;-45
2022/04/18 11:44:39;;;;;;;88.45;38.33;;;;;;;;;;5056096;28;20451;-43
2022/04/18 11:47:07;;;;;;;121.65;49.45;;;;;;;;;;5056080;28;20028;-40
2022/04/18 11:49:33;;;;;;;66.43;30.40;;;;;;;;;;5055656;28;20136;-41
2022/04/18 11:52:02;;;;;;;53.00;20.08;;;;;;;;;;5055845;28;20082;-38
2022/04/18 11:54:29;;;;;;;92.85;38.50;;;;;;;;;;5055447;28;20488;-44
2022/04/18 11:56:58;;;;;;;27.90;14.60;;;;;;;;;;5055749;28;20037;-43
2022/04/18 11:59:26;;;;;;;53.22;21.45;;;;;;;;;;5054054;28;20039;-43
2022/04/18 12:07:25;;;;;;;31.60;13.10;;;;;;;;;;5055870;28;20151;-40
2022/04/18 12:09:51;;;;;;;32.83;15.38;;;;;;;;;;5055339;28;20465;-42
2022/04/18 12:12:30;;;;;;;36.80;17.58;;;;;;;;;;5055454;28;20021;-40
2022/04/18 12:15:00;;;;;;;19.58;9.07;;;;;;;;;;5055141;28;20025;-41
2022/04/18 12:17:26;;;;;;;25.25;12.02;;;;;;;;;;5055326;28;20056;-38
2022/04/18 12:19:52;;;;;;;46.17;21.90;;;;;;;;;;5055109;28;20242;-44
2022/04/18 12:22:22;;;;;;;35.95;19.65;;;;;;;;;;5055223;28;20025;-41
2022/04/18 12:24:48;;;;;;;75.82;38.13;;;;;;;;;;5054849;28;20027;-44
2022/04/18 12:27:16;;;;;;;49.00;27.70;;;;;;;;;;5055127;28;20047;-41
2022/04/18 12:29:43;;;;;;;47.08;26.52;;;;;;;;;;5054770;28;20033;-42
2022/04/18 12:32:24;;;;;;;28.65;16.35;;;;;;;;;;5055254;28;20070;-42
2022/04/18 12:34:50;;;;;;;39.53;19.85;;;;;;;;;;5055169;28;20057;-42
2022/04/18 12:37:16;;;;;;;39.95;20.27;;;;;;;;;;5054984;28;20032;-44
2022/04/18 12:39:43;;;;;;;55.95;30.70;;;;;;;;;;5055122;28;20369;-43
2022/04/18 12:42:13;;;;;;;61.70;33.58;;;;;;;;;;5054848;28;20032;-41
2022/04/18 12:44:39;;;;;;;50.40;27.92;;;;;;;;;;5054676;28;20104;-44
2022/04/18 12:47:18;;;;;;;65.53;32.47;;;;;;;;;;5054599;28;20033;-40
2022/04/18 12:50:03;;;;;;;100.32;53.10;;;;;;;;;;5054460;28;20428;-41
2022/04/18 12:52:30;;;;;;;62.85;32.58;;;;;;;;;;5054562;28;20104;-41
2022/04/18 12:55:08;;;;;;;19.35;10.88;;;;;;;;;;5054354;28;20025;-39
2022/04/18 12:57:35;;;;;;;163.95;88.95;;;;;;;;;;5054438;28;20031;-43
2022/04/18 13:00:12;;;;;;;117.93;61.63;;;;;;;;;;5054670;28;20033;-40
2022/04/18 13:02:41;;;;;;;142.30;75.15;;;;;;;;;;5054604;28;20096;-42
2022/04/18 13:05:08;;;;;;;126.07;65.38;;;;;;;;;;5054387;28;20019;-42
2022/04/18 13:07:43;;;;;;;120.57;66.22;;;;;;;;;;5054303;28;20499;-41
2022/04/18 13:10:09;;;;;;;120.82;66.72;;;;;;;;;;5053857;28;20458;-41
2022/04/18 13:12:35;;;;;;;190.27;103.95;;;;;;;;;;5054464;28;20025;-42
2022/04/18 13:15:05;;;;;;;124.38;65.95;;;;;;;;;;5053573;28;20540;-41
2022/04/18 13:17:33;;;;;;;61.67;30.85;;;;;;;;;;5053813;28;20033;-39
2022/04/18 13:20:00;;;;;;;88.70;47.03;;;;;;;;;;5053690;28;20017;-44
2022/04/18 13:22:27;;;;;;;76.90;40.28;;;;;;;;;;5053555;28;20037;-43
2022/04/18 13:24:53;;;;;;;67.22;34.75;;;;;;;;;;5053268;28;20541;-42
2022/04/18 13:27:26;;;;;;;79.78;39.45;;;;;;;;;;5053483;28;20056;-39
2022/04/18 13:29:54;;;;;;;13.23;7.63;;;;;;;;;;5050805;28;20579;-40
2022/04/18 13:32:23;;;;;;;14.10;8.05;;;;;;;;;;5053688;28;20489;-41
2022/04/18 13:34:49;;;;;;;45.13;24.70;;;;;;;;;;5050742;28;20021;-39
2022/04/18 13:37:15;;;;;;;22.88;11.15;;;;;;;;;;5053140;28;20029;-40
2022/04/18 13:39:47;;;;;;;37.35;20.10;;;;;;;;;;5053218;28;20380;-39
2022/04/18 13:42:13;;;;;;;10.45;6.38;;;;;;;;;;5053658;28;20534;-39
2022/04/18 13:44:39;;;;;;;9.45;4.90;;;;;;;;;;5053784;28;20438;-39
2022/04/18 13:47:06;;;;;;;13.20;6.25;;;;;;;;;;5053415;28;20116;-38
2022/04/18 13:49:32;;;;;;;6.30;2.72;;;;;;;;;;5053446;28;20052;-39
2022/04/18 13:51:58;;;;;;;7.13;4.00;;;;;;;;;;5053543;28;20032;-39
2022/04/18 13:54:24;;;;;;;9.25;5.05;;;;;;;;;;5053260;28;20028;-38
2022/04/18 13:56:50;;;;;;;6.80;4.47;;;;;;;;;;5053459;28;20033;-40
2022/04/18 13:59:17;;;;;;;17.10;9.32;;;;;;;;;;5053105;28;20036;-39
2022/04/18 14:01:43;;;;;;;20.55;10.75;;;;;;;;;;5053394;28;20041;-39
2022/04/18 14:04:15;;;;;;;11.20;6.75;;;;;;;;;;5053340;28;20033;-42
2022/04/18 14:06:41;;;;;;;16.10;9.40;;;;;;;;;;5048213;28;20199;-42
2022/04/18 14:09:08;;;;;;;11.80;7.18;;;;;;;;;;5023251;28;20029;-41
2022/04/18 14:11:34;;;;;;;28.67;14.32;;;;;;;;;;5021366;28;20829;-42
2022/04/18 14:14:01;;;;;;;15.55;8.30;;;;;;;;;;5021394;28;20022;-40
2022/04/18 14:21:45;;;;;;;18.42;9.57;;;;;;;;;;5020642;28;20032;-40
2022/04/18 14:24:11;;;;;;;17.67;6.80;;;;;;;;;;5022886;28;20786;-38
2022/04/18 14:26:39;;;;;;;22.05;12.43;;;;;;;;;;5021617;28;20376;-42
2022/04/18 14:29:08;;;;;;;36.63;20.23;;;;;;;;;;5022628;28;20033;-40
2022/04/18 14:31:34;;;;;;;15.27;8.00;;;;;;;;;;5022706;28;20025;-42
2022/04/18 14:34:00;;;;;;;23.67;11.35;;;;;;;;;;5021170;28;20052;-42
2022/04/18 14:36:27;;;;;;;7.70;5.10;;;;;;;;;;5020754;28;20033;-40
2022/04/18 14:38:53;;;;;;;16.52;8.95;;;;;;;;;;5021243;28;20025;-39
2022/04/18 14:41:19;;;;;;;26.48;14.45;;;;;;;;;;5021864;28;20064;-42
2022/04/18 14:43:45;;;;;;;20.35;10.40;;;;;;;;;;5021339;28;20017;-43
2022/04/18 14:46:11;;;;;;;15.95;10.05;;;;;;;;;;5020973;28;20033;-39
2022/04/18 14:48:37;;;;;;;17.88;10.35;;;;;;;;;;5021053;28;20404;-39
2022/04/18 14:51:04;;;;;;;13.63;8.20;;;;;;;;;;5021003;28;20031;-41
2022/04/18 14:53:32;;;;;;;23.13;14.13;;;;;;;;;;5021646;28;20057;-37
2022/04/18 14:55:58;;;;;;;13.90;8.20;;;;;;;;;;5022447;28;20025;-40
2022/04/18 14:58:24;;;;;;;7.30;4.75;;;;;;;;;;5020867;28;20534;-37
2022/04/18 15:00:50;;;;;;;17.73;9.93;;;;;;;;;;5020964;28;20179;-43
2022/04/18 15:03:17;;;;;;;23.90;13.70;;;;;;;;;;5020892;28;20021;-40
2022/04/18 15:05:43;;;;;;;19.13;9.30;;;;;;;;;;5020698;28;20021;-39